Airfield :
LOGIN :

Register | Disclaimer

   EN    FR    IT 

 










Legend :    VFR   Marginal VFR   IFR   Intensive IFR   Very Intensive IFR
Visi :
Ceiling :
>= 8 km
>= 3000ft
5 to 8 km
1000 to 3000 ft
1500m to 5 km
500 to 1000 ft
800 to 1500m
200 to 500 ft
< 800m
< 200 ft
Symbols :   Thunderstorms  Fog  Heavy snow  Heavy precipitations  Wind > 20 kt
SIGMETs :     Misc.  Thunderstorms  Icing  Turbulence  Mountain Waves  Volcanic Ashes







- Airport Elevation : 160 ft
- IATA code : LRT
- Download approach charts


LFRH - Lorient Lann Bihoue

CURRENT METAR :
  • 172230Z AUTO 01001KT CAVOK 02/M00 Q1021 BECMG 10010KT

EXPIRED METARs :
  • 172200Z AUTO 00000KT CAVOK 02/M01 Q1020 NOSIG
  • 172130Z AUTO 05001KT CAVOK 02/M01 Q1020 NOSIG
  • 172100Z AUTO 34002KT CAVOK 02/M01 Q1020 NOSIG
  • 172030Z AUTO 32002KT CAVOK 01/M01 Q1020 NOSIG
  • 172000Z AUTO 01002KT CAVOK 03/M00 Q1020 NOSIG

TAF TAF LFRH
Valid from the 17 at 18:00 until the 18 at 18:00 UTC


171700Z 1718/1818 36005KT CAVOK
BECMG 1800/1802 10010KT
BECMG 1806/1808 BKN020 OVC030
BECMG 1808/1810 16010G20KT
TEMPO 1808/1814 5000 RA SCT010 OVC015
BECMG 1814/1816 3000 RA BKN010TCU OVC020
No reported NOTAMs for that airfield.



MET'MAP, your aeronautical weather chart ! - Copyright ORBIFLY December 2007 - Disclaimer

ORBIFLY MET'MAP TEAM :

Programming & Development : Alexandra Zaïnal
Concept & Development : Baudouin d'Aumeries
Co-Development & Prog : Marc-Olivier Méhu
Technical & hardware support : Manuel Goepfert

Contact : metmap@orbifly.com




SOURCES & CREDITS :

   NOAA